createdAt,value
2022-12-13T00:01:23.280Z,6.27
2022-12-13T00:03:53.724Z,7.87
2022-12-13T00:06:21.671Z,6.67
2022-12-13T00:08:49.863Z,7.93
2022-12-13T00:11:19.687Z,6.87
2022-12-13T00:13:48.481Z,7.80
2022-12-13T00:16:18.095Z,8.97
2022-12-13T00:18:48.191Z,8.03
2022-12-13T00:21:19.723Z,7.23
2022-12-13T00:23:48.287Z,9.80
2022-12-13T00:26:17.655Z,6.93
2022-12-13T00:28:49.306Z,6.93
2022-12-13T00:34:06.390Z,5.70
2022-12-13T00:36:34.306Z,7.97
2022-12-13T00:39:02.498Z,8.53
2022-12-13T00:41:32.766Z,6.30
2022-12-13T00:44:02.882Z,8.63
2022-12-13T00:46:31.055Z,5.97
2022-12-13T00:49:01.156Z,6.43
2022-12-13T00:51:30.846Z,7.80
2022-12-13T00:53:59.542Z,5.73
2022-12-13T00:56:29.387Z,6.20
2022-12-13T00:58:57.956Z,4.97
2022-12-13T01:01:29.872Z,5.43
2022-12-13T01:04:00.753Z,7.37
2022-12-13T01:06:30.936Z,8.97
2022-12-13T01:08:58.999Z,9.13
2022-12-13T01:11:27.369Z,7.07
2022-12-13T01:13:55.258Z,6.73
2022-12-13T01:16:23.233Z,7.23
2022-12-13T01:18:52.770Z,7.97
2022-12-13T01:21:22.264Z,9.80
2022-12-13T01:23:50.655Z,7.87
2022-12-13T01:26:22.476Z,8.87
2022-12-13T01:28:50.465Z,6.77
2022-12-13T01:31:22.835Z,5.97
2022-12-13T01:33:52.252Z,6.60
2022-12-13T01:36:27.644Z,6.77
2022-12-13T01:38:58.803Z,6.13
2022-12-13T01:41:28.012Z,7.10
2022-12-13T01:44:00.977Z,6.83
2022-12-13T01:46:29.087Z,7.33
2022-12-13T01:49:04.122Z,10.57
2022-12-13T01:51:38.825Z,5.30
2022-12-13T01:54:09.183Z,9.67
2022-12-13T01:56:42.566Z,6.37
2022-12-13T01:59:13.724Z,7.87
2022-12-13T02:01:42.254Z,7.57
2022-12-13T02:04:11.545Z,6.97
2022-12-13T02:06:43.496Z,6.60
2022-12-13T02:09:12.253Z,7.40
2022-12-13T02:11:43.566Z,7.90
2022-12-13T02:14:11.994Z,6.70
2022-12-13T02:16:50.351Z,5.83
2022-12-13T02:19:54.337Z,7.60
2022-12-13T02:22:41.338Z,5.67
2022-12-13T02:25:34.090Z,7.90
2022-12-13T02:28:30.481Z,7.67
2022-12-13T02:31:07.947Z,10.73
2022-12-13T02:33:53.845Z,12.27
2022-12-13T02:36:36.004Z,13.80
2022-12-13T02:39:14.538Z,15.60
2022-12-13T02:41:49.551Z,15.33
2022-12-13T02:44:23.044Z,13.20
2022-12-13T02:46:56.336Z,14.93
2022-12-13T02:49:26.090Z,16.23
2022-12-13T02:51:54.860Z,15.40
2022-12-13T02:54:24.164Z,15.73
2022-12-13T02:56:56.255Z,19.83
2022-12-13T02:59:28.932Z,14.10
2022-12-13T03:02:10.257Z,15.03
2022-12-13T03:05:03.066Z,13.73
2022-12-13T03:07:39.348Z,14.13
2022-12-13T03:10:11.103Z,14.93
2022-12-13T03:13:04.185Z,15.23
2022-12-13T03:15:39.931Z,13.00
2022-12-13T03:18:16.336Z,12.13
2022-12-13T03:20:48.347Z,13.47
2022-12-13T03:23:17.241Z,16.60
2022-12-13T03:25:46.823Z,11.67
2022-12-13T03:28:14.737Z,13.50
2022-12-13T03:30:42.688Z,16.00
2022-12-13T03:33:11.961Z,13.00
2022-12-13T03:35:44.746Z,12.63
2022-12-13T03:38:21.384Z,14.23
2022-12-13T03:40:52.644Z,10.23
2022-12-13T03:43:21.743Z,15.63
2022-12-13T03:45:51.097Z,12.47
2022-12-13T03:48:23.025Z,14.97
2022-12-13T03:50:52.073Z,12.97
2022-12-13T03:53:22.287Z,10.30
2022-12-13T03:56:00.805Z,14.07
2022-12-13T03:58:35.627Z,10.33
2022-12-13T04:01:06.807Z,13.13
2022-12-13T04:03:36.308Z,18.43
2022-12-13T04:06:04.835Z,10.60
2022-12-13T04:08:32.868Z,11.00
2022-12-13T04:11:20.882Z,10.60
2022-12-13T04:13:47.804Z,11.57
2022-12-13T04:16:15.756Z,10.30
2022-12-13T04:18:45.068Z,12.33
2022-12-13T04:21:12.986Z,8.97
2022-12-13T04:23:40.960Z,9.20
2022-12-13T04:26:08.891Z,9.17
2022-12-13T04:28:36.994Z,10.83
2022-12-13T04:31:05.026Z,12.83
2022-12-13T04:33:33.746Z,9.67
2022-12-13T04:36:03.046Z,13.90
2022-12-13T04:38:30.935Z,13.93
2022-12-13T04:41:07.445Z,12.23
2022-12-13T04:43:35.399Z,9.63
2022-12-13T04:46:03.403Z,10.90
2022-12-13T04:48:32.464Z,10.57
2022-12-13T04:51:02.175Z,9.10
2022-12-13T04:53:30.611Z,8.77
2022-12-13T04:55:58.673Z,9.33
2022-12-13T04:58:26.610Z,9.43
2022-12-13T05:00:54.508Z,9.10
2022-12-13T05:03:22.458Z,9.67
2022-12-13T05:05:50.543Z,10.77
2022-12-13T05:08:19.938Z,10.93
2022-12-13T05:10:47.846Z,10.33
2022-12-13T05:13:15.990Z,8.87
2022-12-13T05:15:43.867Z,9.07
2022-12-13T05:18:11.765Z,9.60
2022-12-13T05:20:40.104Z,6.93
2022-12-13T05:23:08.178Z,7.53
2022-12-13T05:25:37.768Z,8.00
2022-12-13T05:28:08.873Z,7.03
2022-12-13T05:30:54.489Z,10.60
2022-12-13T05:33:22.820Z,11.57
2022-12-13T05:35:52.955Z,7.47
2022-12-13T05:38:24.166Z,11.60
2022-12-13T05:40:53.418Z,9.50
2022-12-13T05:43:22.469Z,10.23
2022-12-13T05:45:50.758Z,12.50
2022-12-13T05:48:24.613Z,14.10
2022-12-13T05:51:11.108Z,16.57
2022-12-13T05:53:40.248Z,18.53
2022-12-13T05:56:10.596Z,21.20
2022-12-13T05:58:39.596Z,27.30
2022-12-13T06:01:09.081Z,14.50
2022-12-13T06:03:37.309Z,21.97
2022-12-13T06:06:06.652Z,24.63
2022-12-13T06:08:35.231Z,18.90
2022-12-13T06:11:11.215Z,15.60
2022-12-13T06:13:43.558Z,15.30
2022-12-13T06:16:22.548Z,14.67
2022-12-13T06:19:03.654Z,15.20
2022-12-13T06:21:44.207Z,12.77
2022-12-13T06:24:15.526Z,10.93
2022-12-13T06:26:44.878Z,17.33
2022-12-13T06:29:23.713Z,9.60
2022-12-13T06:32:01.891Z,18.43
2022-12-13T06:34:31.947Z,23.10
2022-12-13T06:37:00.909Z,14.33
2022-12-13T06:39:38.901Z,14.30
2022-12-13T06:42:09.044Z,10.93
2022-12-13T06:44:38.323Z,10.17
2022-12-13T06:47:11.824Z,11.93
2022-12-13T06:49:42.952Z,10.87
2022-12-13T06:52:13.039Z,12.43
2022-12-13T06:54:41.178Z,22.77
2022-12-13T06:57:09.625Z,9.43
2022-12-13T06:59:39.070Z,14.73
2022-12-13T07:02:24.523Z,11.57
2022-12-13T07:04:54.763Z,12.07
2022-12-13T07:07:22.749Z,11.00
2022-12-13T07:09:50.626Z,17.30
2022-12-13T07:12:19.240Z,13.33
2022-12-13T07:14:48.527Z,13.40
2022-12-13T07:17:32.391Z,7.83
2022-12-13T07:20:03.014Z,16.13
2022-12-13T07:22:34.700Z,12.17
2022-12-13T07:25:04.813Z,11.30
2022-12-13T07:27:32.939Z,10.67
2022-12-13T07:30:02.607Z,13.00
2022-12-13T07:32:30.524Z,9.60
2022-12-13T07:34:58.411Z,12.13
2022-12-13T07:37:30.245Z,13.73
2022-12-13T07:40:04.099Z,12.33
2022-12-13T07:42:32.750Z,11.30
2022-12-13T07:45:02.030Z,14.30
2022-12-13T07:47:31.068Z,18.13
2022-12-13T07:49:59.538Z,11.40
2022-12-13T07:52:29.659Z,8.97
2022-12-13T07:54:57.538Z,10.13
2022-12-13T07:57:25.464Z,12.00
2022-12-13T07:59:53.370Z,12.83
2022-12-13T08:02:22.615Z,13.10
2022-12-13T08:04:54.506Z,12.97
2022-12-13T08:07:23.058Z,9.67
2022-12-13T08:09:52.918Z,10.33
2022-12-13T08:12:22.518Z,12.80
2022-12-13T08:14:53.093Z,10.40
2022-12-13T08:17:23.202Z,9.27
2022-12-13T08:19:51.089Z,11.67
2022-12-13T08:22:23.818Z,8.90
2022-12-13T08:24:52.247Z,10.30
2022-12-13T08:27:20.198Z,8.70
2022-12-13T08:29:48.158Z,8.07
2022-12-13T08:32:16.048Z,9.00
2022-12-13T08:34:45.530Z,12.43
2022-12-13T08:37:13.730Z,9.87
2022-12-13T08:39:41.677Z,9.77
2022-12-13T08:42:15.903Z,9.73
2022-12-13T08:44:45.578Z,12.63
2022-12-13T08:47:24.354Z,10.57
2022-12-13T08:50:02.136Z,11.00
2022-12-13T08:52:31.963Z,9.77
2022-12-13T08:55:08.509Z,11.57
2022-12-13T08:57:37.083Z,11.37
2022-12-13T09:00:05.583Z,13.10
2022-12-13T09:02:38.347Z,11.30
2022-12-13T09:05:10.213Z,10.27
2022-12-13T09:07:39.583Z,7.87
2022-12-13T09:10:26.265Z,10.03
2022-12-13T09:13:01.105Z,13.33
2022-12-13T09:15:34.714Z,9.63
2022-12-13T09:18:04.271Z,10.37
2022-12-13T09:20:41.513Z,10.97
2022-12-13T09:23:21.506Z,9.73
2022-12-13T09:26:05.306Z,9.53
2022-12-13T09:28:35.318Z,8.73
2022-12-13T09:31:07.548Z,9.77
2022-12-13T09:33:40.872Z,13.57
2022-12-13T09:36:13.393Z,8.03
2022-12-13T09:38:41.491Z,10.70
2022-12-13T09:41:20.236Z,9.63
2022-12-13T09:43:50.683Z,8.83
2022-12-13T09:46:34.893Z,10.50
2022-12-13T09:49:23.035Z,12.80
2022-12-13T09:52:10.840Z,10.07
2022-12-13T09:54:49.015Z,9.20
2022-12-13T09:57:31.974Z,11.30
2022-12-13T10:00:03.253Z,11.13
2022-12-13T10:02:33.106Z,11.07
2022-12-13T10:05:21.604Z,9.27
2022-12-13T10:07:56.565Z,11.90
2022-12-13T10:10:25.348Z,9.93
2022-12-13T10:12:57.804Z,11.93
2022-12-13T10:15:27.150Z,10.57
2022-12-13T10:17:55.981Z,12.63
2022-12-13T10:20:26.275Z,10.77
2022-12-13T10:23:31.163Z,9.93
2022-12-13T10:25:51.106Z,8.70
2022-12-13T10:28:25.809Z,8.77
2022-12-13T10:30:53.782Z,8.53
2022-12-13T10:33:25.589Z,9.50
2022-12-13T10:36:09.040Z,7.73
2022-12-13T10:38:40.881Z,10.80
2022-12-13T10:41:34.987Z,6.67
2022-12-13T10:44:15.790Z,8.40
2022-12-13T10:46:50.006Z,8.07
2022-12-13T10:49:20.748Z,9.80
2022-12-13T10:51:50.321Z,9.47
2022-12-13T10:54:28.291Z,9.03
2022-12-13T10:57:00.286Z,10.10
2022-12-13T10:59:33.272Z,7.13
2022-12-13T11:02:03.746Z,7.90
2022-12-13T11:04:33.356Z,9.47
2022-12-13T11:07:21.775Z,9.03
2022-12-13T11:09:52.640Z,8.67
2022-12-13T11:12:24.228Z,8.17
2022-12-13T11:14:58.086Z,8.17
2022-12-13T11:17:28.025Z,7.43
2022-12-13T11:19:58.535Z,7.40
2022-12-13T11:22:30.024Z,7.37
2022-12-13T11:25:02.675Z,7.90
2022-12-13T11:27:56.883Z,14.50
2022-12-13T11:30:31.484Z,8.47
2022-12-13T11:33:19.568Z,9.80
2022-12-13T11:36:00.163Z,11.93
2022-12-13T11:38:33.424Z,10.73
2022-12-13T11:41:11.363Z,10.00
2022-12-13T11:43:44.486Z,8.67
2022-12-13T11:46:18.552Z,11.70
2022-12-13T11:48:52.019Z,8.70
2022-12-13T11:51:27.093Z,13.17
2022-12-13T11:54:01.041Z,10.90
2022-12-13T11:56:34.520Z,7.57
2022-12-13T11:59:23.793Z,10.40
2022-12-13T12:02:04.835Z,10.47
2022-12-13T12:04:38.922Z,12.57
2022-12-13T12:07:31.703Z,11.07
2022-12-13T12:10:06.537Z,14.40
2022-12-13T12:12:38.013Z,14.80
2022-12-13T12:15:15.251Z,10.33
2022-12-13T12:17:43.919Z,12.13
2022-12-13T12:20:14.368Z,10.37
2022-12-13T12:23:01.779Z,9.87
2022-12-13T12:25:42.599Z,11.30
2022-12-13T12:28:23.431Z,10.07
2022-12-13T12:31:00.755Z,13.33
2022-12-13T12:33:38.709Z,11.10
2022-12-13T12:36:25.459Z,8.33
2022-12-13T12:39:11.134Z,11.80
2022-12-13T12:41:52.033Z,7.03
2022-12-13T12:44:34.797Z,10.17
2022-12-13T12:47:57.516Z,11.40
2022-12-13T12:50:36.351Z,10.07
2022-12-13T12:53:19.081Z,10.03
2022-12-13T12:55:52.666Z,8.87
2022-12-13T12:58:28.831Z,9.97
2022-12-13T13:01:11.118Z,11.03
2022-12-13T13:03:42.467Z,9.30
2022-12-13T13:06:16.974Z,12.33
2022-12-13T13:08:54.845Z,8.50
2022-12-13T13:11:25.960Z,9.70
2022-12-13T13:14:28.560Z,12.83
2022-12-13T13:16:58.545Z,9.30
2022-12-13T13:19:46.134Z,11.00
2022-12-13T13:22:32.608Z,9.83
2022-12-13T13:25:18.548Z,7.07
2022-12-13T13:27:47.877Z,12.17
2022-12-13T13:30:20.829Z,11.60
2022-12-13T13:32:51.289Z,13.77
2022-12-13T13:35:53.583Z,9.17
2022-12-13T13:39:01.381Z,13.47
2022-12-13T13:41:57.849Z,11.53
2022-12-13T13:45:01.674Z,10.00
2022-12-13T13:47:42.967Z,10.90
2022-12-13T13:50:48.610Z,11.90
2022-12-13T13:53:46.465Z,12.70
2022-12-13T13:56:33.597Z,16.00
2022-12-13T13:59:30.962Z,16.03
2022-12-13T14:02:51.523Z,14.90
2022-12-13T14:06:11.462Z,11.97
2022-12-13T14:08:48.888Z,10.10
2022-12-13T14:11:25.807Z,10.70
2022-12-13T14:14:24.249Z,11.23
2022-12-13T14:17:27.276Z,11.33
2022-12-13T14:20:28.947Z,11.63
2022-12-13T14:23:05.021Z,10.70
2022-12-13T14:26:06.232Z,13.60
2022-12-13T14:28:47.825Z,9.30
2022-12-13T14:31:22.069Z,11.70
2022-12-13T14:33:52.947Z,12.20
2022-12-13T14:36:28.661Z,13.47
2022-12-13T14:39:05.580Z,14.87
2022-12-13T14:41:33.996Z,15.10
2022-12-13T14:44:19.443Z,14.17
2022-12-13T14:46:55.459Z,11.53
2022-12-13T14:49:25.671Z,12.33
2022-12-13T14:52:01.226Z,7.73
2022-12-13T14:54:38.553Z,15.33
2022-12-13T14:57:06.455Z,10.27
2022-12-13T14:59:34.661Z,11.23
2022-12-13T15:02:05.496Z,14.70
2022-12-13T15:04:35.767Z,11.43
2022-12-13T15:07:08.048Z,14.37
2022-12-13T15:09:39.276Z,12.00
2022-12-13T15:12:24.749Z,12.27
2022-12-13T15:14:59.615Z,12.60
2022-12-13T15:17:33.431Z,12.10
2022-12-13T15:20:02.265Z,11.17
2022-12-13T15:22:30.304Z,12.47
2022-12-13T15:24:59.783Z,11.23
2022-12-13T15:27:28.246Z,9.90
2022-12-13T15:29:56.584Z,13.20
2022-12-13T15:32:24.491Z,16.50
2022-12-13T15:34:53.356Z,11.03
2022-12-13T15:37:28.874Z,11.30
2022-12-13T15:40:01.806Z,13.07
2022-12-13T15:42:33.288Z,11.10
2022-12-13T15:45:05.117Z,11.87
2022-12-13T15:47:33.707Z,17.13
2022-12-13T15:50:03.685Z,14.97
2022-12-13T15:52:34.527Z,13.03
2022-12-13T15:55:19.866Z,13.83
2022-12-13T15:57:52.404Z,14.43
2022-12-13T16:00:31.148Z,12.60
2022-12-13T16:03:09.253Z,14.10
2022-12-13T16:05:41.614Z,14.87
2022-12-13T16:08:26.894Z,15.73
2022-12-13T16:10:57.075Z,12.63
2022-12-13T16:13:27.568Z,17.83
2022-12-13T16:15:59.955Z,19.33
2022-12-13T16:18:33.407Z,19.20
2022-12-13T16:21:01.911Z,20.77
2022-12-13T16:23:30.049Z,19.97
2022-12-13T16:26:03.106Z,16.13
2022-12-13T16:28:33.943Z,17.50
2022-12-13T16:31:15.026Z,22.33
2022-12-13T16:33:43.730Z,20.13
2022-12-13T16:36:12.258Z,20.60
2022-12-13T16:38:40.343Z,20.50
2022-12-13T16:41:10.179Z,22.33
2022-12-13T16:43:41.621Z,19.73
2022-12-13T16:47:14.155Z,23.90
2022-12-13T16:49:03.000Z,23.20
2022-12-13T16:51:30.906Z,17.57
2022-12-13T16:53:58.777Z,26.10
2022-12-13T16:56:28.457Z,20.20
2022-12-13T16:58:56.353Z,19.23
2022-12-13T17:01:24.284Z,15.10
2022-12-13T17:03:52.830Z,27.47
2022-12-13T17:06:24.713Z,20.77
2022-12-13T17:08:52.618Z,22.47
2022-12-13T17:11:20.569Z,22.00
2022-12-13T17:13:50.699Z,22.63
2022-12-13T17:16:18.877Z,22.57
2022-12-13T17:18:46.845Z,19.73
2022-12-13T17:21:14.989Z,20.17
2022-12-13T17:23:42.893Z,19.47
2022-12-13T17:26:12.392Z,17.17
2022-12-13T17:28:40.289Z,12.40
2022-12-13T17:31:12.111Z,12.10
2022-12-13T17:33:40.193Z,15.33
2022-12-13T17:36:09.825Z,15.67
2022-12-13T17:38:38.238Z,10.87
2022-12-13T17:41:06.411Z,14.17
2022-12-13T17:43:35.617Z,11.63
2022-12-13T17:46:04.867Z,14.43
2022-12-13T17:48:40.286Z,12.20
2022-12-13T17:51:09.761Z,12.20
2022-12-13T17:53:37.801Z,15.17
2022-12-13T17:56:07.967Z,16.53
2022-12-13T17:58:36.512Z,15.93
2022-12-13T18:01:12.212Z,16.37
2022-12-13T18:03:41.664Z,13.43
2022-12-13T18:06:09.915Z,11.47
2022-12-13T18:08:39.306Z,16.90
2022-12-13T18:11:31.841Z,16.27
2022-12-13T18:13:56.587Z,12.73
2022-12-13T18:16:33.969Z,16.37
2022-12-13T18:19:07.061Z,15.90
2022-12-13T18:21:36.623Z,15.27
2022-12-13T18:24:05.481Z,14.60
2022-12-13T18:26:33.599Z,14.73
2022-12-13T18:29:01.790Z,11.13
2022-12-13T18:31:29.812Z,15.17
2022-12-13T18:33:57.800Z,11.27
2022-12-13T18:36:27.355Z,12.97
2022-12-13T18:38:55.348Z,14.67
2022-12-13T18:41:24.860Z,14.80
2022-12-13T18:43:59.519Z,12.30
2022-12-13T18:46:29.190Z,11.93
2022-12-13T18:48:57.790Z,14.90
2022-12-13T18:51:27.316Z,16.57
2022-12-13T18:53:56.056Z,11.77
2022-12-13T18:56:25.733Z,11.63
2022-12-13T18:58:54.157Z,17.13
2022-12-13T19:01:25.441Z,16.90
2022-12-13T19:03:53.751Z,19.97
2022-12-13T19:06:24.126Z,25.30
2022-12-13T19:08:55.594Z,23.00
2022-12-13T19:11:24.696Z,24.50
2022-12-13T19:13:52.616Z,16.40
2022-12-13T19:16:22.880Z,18.47
2022-12-13T19:18:50.845Z,28.00
2022-12-13T19:21:21.356Z,18.60
2022-12-13T19:23:55.863Z,22.20
2022-12-13T19:26:27.269Z,19.93
2022-12-13T19:28:57.238Z,19.20
2022-12-13T19:31:30.565Z,29.47
2022-12-13T19:34:00.518Z,27.37
2022-12-13T19:36:28.436Z,27.17
2022-12-13T19:38:56.916Z,21.13
2022-12-13T19:41:26.284Z,21.70
2022-12-13T19:43:54.317Z,20.53
2022-12-13T19:46:23.034Z,27.37
2022-12-13T19:48:51.019Z,25.17
2022-12-13T19:51:18.933Z,34.43
2022-12-13T19:53:46.815Z,33.50
2022-12-13T19:56:17.703Z,33.10
2022-12-13T19:58:48.308Z,26.13
2022-12-13T20:01:16.751Z,68.60
2022-12-13T20:03:46.330Z,69.57
2022-12-13T20:06:16.535Z,56.10
2022-12-13T20:08:44.563Z,46.77
2022-12-13T20:11:14.921Z,142.70
2022-12-13T20:13:43.034Z,258.93
2022-12-13T20:16:17.833Z,50.57
2022-12-13T20:18:46.398Z,44.73
2022-12-13T20:21:15.555Z,95.73
2022-12-13T20:23:49.220Z,58.60
2022-12-13T20:26:20.076Z,52.63
2022-12-13T20:28:48.115Z,61.80
2022-12-13T20:31:19.967Z,56.93
2022-12-13T20:33:48.463Z,73.23
2022-12-13T20:36:26.346Z,59.77
2022-12-13T20:38:55.982Z,53.37
2022-12-13T20:41:25.637Z,53.03
2022-12-13T20:43:54.276Z,45.53
2022-12-13T20:46:24.536Z,34.67
2022-12-13T20:48:53.398Z,34.17
2022-12-13T20:51:23.413Z,33.27
2022-12-13T20:53:52.579Z,38.30
2022-12-13T20:56:22.070Z,33.30
2022-12-13T20:58:50.426Z,31.40
2022-12-13T21:01:20.251Z,30.63
2022-12-13T21:03:50.058Z,29.17
2022-12-13T21:06:17.972Z,35.50
2022-12-13T21:08:52.676Z,38.03
2022-12-13T21:11:27.170Z,41.37
2022-12-13T21:13:59.967Z,35.40
2022-12-13T21:16:32.002Z,35.77
2022-12-13T21:19:02.126Z,37.33
2022-12-13T21:21:30.515Z,60.00
2022-12-13T21:23:59.121Z,44.37
2022-12-13T21:26:33.156Z,36.77
2022-12-13T21:29:05.237Z,33.20
2022-12-13T21:31:33.531Z,42.77
2022-12-13T21:34:03.249Z,40.97
2022-12-13T21:36:32.740Z,32.50
2022-12-13T21:39:02.665Z,44.07
2022-12-13T21:41:31.129Z,34.83
2022-12-13T21:44:00.532Z,65.63
2022-12-13T21:46:47.812Z,41.37
2022-12-13T21:49:19.474Z,46.73
2022-12-13T21:51:48.326Z,40.60
2022-12-13T21:54:16.896Z,64.67
2022-12-13T21:57:02.131Z,31.23
2022-12-13T21:59:30.840Z,45.33
2022-12-13T22:02:13.214Z,31.97
2022-12-13T22:04:44.732Z,28.50
2022-12-13T22:07:14.659Z,35.53
2022-12-13T22:09:42.673Z,32.47
2022-12-13T22:12:11.976Z,43.20
2022-12-13T22:14:40.336Z,37.93
2022-12-13T22:17:08.236Z,33.83
2022-12-13T22:19:36.181Z,28.43
2022-12-13T22:22:05.649Z,32.60
2022-12-13T22:24:33.539Z,38.53
2022-12-13T22:27:01.960Z,41.47
2022-12-13T22:29:29.944Z,39.60
2022-12-13T22:31:57.909Z,38.47
2022-12-13T22:34:25.824Z,52.00
2022-12-13T22:36:53.989Z,60.03
2022-12-13T22:39:24.775Z,58.17
2022-12-13T22:41:53.131Z,49.10
2022-12-13T22:44:21.652Z,49.30
2022-12-13T22:46:49.651Z,43.23
2022-12-13T22:49:17.823Z,42.83
2022-12-13T22:51:45.747Z,44.87
2022-12-13T22:54:13.671Z,35.97
2022-12-13T22:56:42.907Z,46.13
2022-12-13T22:59:10.863Z,43.00
2022-12-13T23:01:40.504Z,43.43
2022-12-13T23:04:08.715Z,50.67
2022-12-13T23:06:38.516Z,49.83
2022-12-13T23:09:08.971Z,47.17
2022-12-13T23:11:54.135Z,53.67
2022-12-13T23:14:28.164Z,45.43
2022-12-13T23:16:56.172Z,48.00
2022-12-13T23:19:48.834Z,52.30
2022-12-13T23:22:12.514Z,43.33
2022-12-13T23:24:40.399Z,46.87
2022-12-13T23:27:08.328Z,50.43
2022-12-13T23:29:37.827Z,48.27
2022-12-13T23:32:05.943Z,50.50
2022-12-13T23:34:34.051Z,42.47
2022-12-13T23:37:01.930Z,52.40
2022-12-13T23:39:29.895Z,50.50
2022-12-13T23:41:57.749Z,49.90
2022-12-13T23:44:25.882Z,50.73
2022-12-13T23:46:55.312Z,45.57
2022-12-13T23:49:23.324Z,48.27
2022-12-13T23:51:51.195Z,46.97
2022-12-13T23:54:20.241Z,53.97
2022-12-13T23:56:48.714Z,53.80
2022-12-13T23:59:16.586Z,56.20
